Time;durP1;ratioP1;P1;durP2;ratioP2;P2;SDS_P1;SDS_P2;PMS_P1;PMS_P2;Temp;Humidity;BMP_temperature;BMP_pressure;BME280_temperature;BME280_humidity;BME280_pressure;Samples;Min_cycle;Max_cycle;Signal;HPM_P1;HPM_P2
2022/12/11 00:01:31;;;;;;;;;28.75;24.50;;;;;;;;5041393;28;45233;-73
2022/12/11 00:03:57;;;;;;;;;31.75;23.50;;;;;;;;5043040;28;45199;-73
2022/12/11 00:06:22;;;;;;;;;30.00;26.50;;;;;;;;5041749;28;45576;-73
2022/12/11 00:08:50;;;;;;;;;23.50;23.50;;;;;;;;5040803;28;45345;-73
2022/12/11 00:11:15;;;;;;;;;28.50;23.75;;;;;;;;5043670;28;45305;-73
2022/12/11 00:13:41;;;;;;;;;33.25;30.00;;;;;;;;5042844;28;45301;-73
2022/12/11 00:16:07;;;;;;;;;30.75;26.25;;;;;;;;5028350;28;47621;-73
2022/12/11 00:18:32;;;;;;;;;25.75;21.50;;;;;;;;5042115;28;45332;-74
2022/12/11 00:21:04;;;;;;;;;29.25;23.00;;;;;;;;5051203;28;44713;-73
2022/12/11 00:23:30;;;;;;;;;34.00;22.50;;;;;;;;5026007;28;46016;-73
2022/12/11 00:25:55;;;;;;;;;27.25;23.75;;;;;;;;5040112;28;45425;-73
2022/12/11 00:28:21;;;;;;;;;31.00;27.00;;;;;;;;5048631;28;47034;-73
2022/12/11 00:30:46;;;;;;;;;28.75;22.25;;;;;;;;5045480;28;45207;-73
2022/12/11 00:33:12;;;;;;;;;33.75;24.00;;;;;;;;5047463;28;45392;-73
2022/12/11 00:35:38;;;;;;;;;30.75;25.75;;;;;;;;5051767;28;47039;-73
2022/12/11 00:38:03;;;;;;;;;39.67;34.33;;;;;;;;5040433;28;45642;-73
2022/12/11 00:40:28;;;;;;;;;26.25;22.50;;;;;;;;5054602;28;45470;-74
2022/12/11 00:42:54;;;;;;;;;29.67;26.00;;;;;;;;5053572;28;45310;-73
2022/12/11 00:45:19;;;;;;;;;31.25;25.75;;;;;;;;5055230;28;45441;-74
2022/12/11 00:47:44;;;;;;;;;39.00;31.75;;;;;;;;5058002;28;45443;-73
2022/12/11 00:50:10;;;;;;;;;30.50;26.25;;;;;;;;5057290;28;45374;-73
2022/12/11 00:52:35;;;;;;;;;35.75;25.75;;;;;;;;5050502;28;45329;-73
2022/12/11 00:55:01;;;;;;;;;29.00;23.75;;;;;;;;5052906;28;45909;-73
2022/12/11 00:57:26;;;;;;;;;27.75;25.75;;;;;;;;5052241;28;45380;-73
2022/12/11 00:59:51;;;;;;;;;27.50;22.75;;;;;;;;5042844;28;45690;-73
2022/12/11 01:02:16;;;;;;;;;38.75;29.75;;;;;;;;5046999;28;45401;-73
2022/12/11 01:04:41;;;;;;;;;31.00;28.50;;;;;;;;5044343;28;45322;-73
2022/12/11 01:07:07;;;;;;;;;29.50;24.50;;;;;;;;5034453;28;45288;-73
2022/12/11 01:12:16;;;;;;;;;26.25;22.25;;;;;;;;5048499;28;45549;-73
2022/12/11 01:14:41;;;;;;;;;27.75;19.75;;;;;;;;5041936;28;45349;-73
2022/12/11 01:17:06;;;;;;;;;22.75;15.00;;;;;;;;5033333;28;45131;-73
2022/12/11 01:19:32;;;;;;;;;30.25;24.50;;;;;;;;5028863;28;45330;-73
2022/12/11 01:21:57;;;;;;;;;27.75;20.25;;;;;;;;5054993;28;44803;-73
2022/12/11 01:24:22;;;;;;;;;31.00;20.75;;;;;;;;5051999;28;46082;-73
2022/12/11 01:26:47;;;;;;;;;23.25;15.50;;;;;;;;5054187;28;45210;-73
2022/12/11 01:29:13;;;;;;;;;30.50;23.00;;;;;;;;5047842;28;45406;-73
2022/12/11 01:31:38;;;;;;;;;20.00;20.00;;;;;;;;5033030;28;45800;-73
2022/12/11 01:34:03;;;;;;;;;23.00;18.75;;;;;;;;5031350;28;47189;-73
2022/12/11 01:36:28;;;;;;;;;36.50;22.50;;;;;;;;5038111;28;45502;-73
2022/12/11 01:38:54;;;;;;;;;24.50;19.25;;;;;;;;5037262;28;45506;-73
2022/12/11 01:41:19;;;;;;;;;23.00;15.00;;;;;;;;5053959;28;45570;-73
2022/12/11 01:44:01;;;;;;;;;25.00;19.50;;;;;;;;5045258;28;45551;-74
2022/12/11 01:46:27;;;;;;;;;25.75;22.50;;;;;;;;5044208;28;44805;-73
2022/12/11 01:48:53;;;;;;;;;21.00;19.00;;;;;;;;5043774;28;45384;-73
2022/12/11 01:51:19;;;;;;;;;28.75;20.50;;;;;;;;5030791;28;45266;-73
2022/12/11 01:53:47;;;;;;;;;24.00;20.25;;;;;;;;5050146;28;46729;-73
2022/12/11 01:56:13;;;;;;;;;20.25;18.75;;;;;;;;5051136;28;45283;-73
2022/12/11 01:59:01;;;;;;;;;20.75;17.25;;;;;;;;5037287;28;45372;-73
2022/12/11 02:01:35;;;;;;;;;27.75;20.00;;;;;;;;5050186;28;45186;-73
2022/12/11 02:04:01;;;;;;;;;22.50;16.00;;;;;;;;5056873;28;46436;-73
2022/12/11 02:06:30;;;;;;;;;19.50;17.75;;;;;;;;5055908;28;45436;-73
2022/12/11 02:08:56;;;;;;;;;21.00;19.25;;;;;;;;5041662;28;45180;-73
2022/12/11 02:11:24;;;;;;;;;27.00;19.75;;;;;;;;5052262;28;45341;-73
2022/12/11 02:14:16;;;;;;;;;24.50;15.25;;;;;;;;5041785;28;45417;-73
2022/12/11 02:16:55;;;;;;;;;18.25;17.00;;;;;;;;5041190;28;45297;-72
2022/12/11 02:19:32;;;;;;;;;23.25;18.50;;;;;;;;5043686;28;45405;-73
2022/12/11 02:21:57;;;;;;;;;23.50;20.50;;;;;;;;5042390;28;45247;-73
2022/12/11 02:24:22;;;;;;;;;24.25;19.00;;;;;;;;5051513;28;45372;-73
2022/12/11 02:27:06;;;;;;;;;28.50;21.25;;;;;;;;5039933;28;45183;-73
2022/12/11 02:29:34;;;;;;;;;19.75;18.75;;;;;;;;5047843;28;45448;-73
2022/12/11 02:32:03;;;;;;;;;21.00;18.00;;;;;;;;5036847;28;45852;-73
2022/12/11 02:34:52;;;;;;;;;27.25;18.25;;;;;;;;5036919;28;47363;-73
2022/12/11 02:37:19;;;;;;;;;20.25;17.75;;;;;;;;5003996;28;45313;-73
2022/12/11 02:39:45;;;;;;;;;21.75;19.50;;;;;;;;5052988;28;45171;-73
2022/12/11 02:42:11;;;;;;;;;21.00;16.00;;;;;;;;5052913;28;45259;-73
2022/12/11 02:44:37;;;;;;;;;24.50;16.25;;;;;;;;5054786;28;46154;-73
2022/12/11 02:47:07;;;;;;;;;16.75;15.25;;;;;;;;5050464;28;45442;-73
2022/12/11 02:49:32;;;;;;;;;18.75;16.75;;;;;;;;5037714;28;45412;-73
2022/12/11 02:51:59;;;;;;;;;21.75;17.50;;;;;;;;5035928;28;47406;-73
2022/12/11 02:54:27;;;;;;;;;22.25;15.25;;;;;;;;5039250;28;47228;-73
2022/12/11 02:56:57;;;;;;;;;35.00;24.50;;;;;;;;5048707;28;45383;-73
2022/12/11 02:59:26;;;;;;;;;24.25;19.75;;;;;;;;5043852;28;45155;-73
2022/12/11 03:01:51;;;;;;;;;25.50;18.00;;;;;;;;5044599;28;45520;-73
2022/12/11 03:04:16;;;;;;;;;21.75;14.75;;;;;;;;5045487;28;45086;-73
2022/12/11 03:06:45;;;;;;;;;21.00;16.50;;;;;;;;5046373;28;45709;-73
2022/12/11 03:09:11;;;;;;;;;22.00;19.00;;;;;;;;5040334;28;45574;-73
2022/12/11 03:11:36;;;;;;;;;15.00;14.75;;;;;;;;5033808;28;46651;-73
2022/12/11 03:14:04;;;;;;;;;19.75;15.50;;;;;;;;5046220;28;45376;-73
2022/12/11 03:16:34;;;;;;;;;17.25;17.00;;;;;;;;5051476;28;45265;-73
2022/12/11 03:18:59;;;;;;;;;18.25;15.00;;;;;;;;5042341;28;45345;-73
2022/12/11 03:21:24;;;;;;;;;24.25;17.50;;;;;;;;5033626;28;46147;-73
2022/12/11 03:24:11;;;;;;;;;19.25;13.75;;;;;;;;5045507;28;45471;-73
2022/12/11 03:26:39;;;;;;;;;15.00;14.75;;;;;;;;5052919;28;45348;-73
2022/12/11 03:29:31;;;;;;;;;18.75;18.00;;;;;;;;5046176;28;45351;-73
2022/12/11 03:32:13;;;;;;;;;18.75;10.25;;;;;;;;5041149;28;45805;-73
2022/12/11 03:34:47;;;;;;;;;25.75;17.50;;;;;;;;5034425;28;48656;-73
2022/12/11 03:37:14;;;;;;;;;22.75;15.00;;;;;;;;5042609;28;45377;-74
2022/12/11 03:39:42;;;;;;;;;19.25;15.00;;;;;;;;5045107;28;45356;-73
2022/12/11 03:42:09;;;;;;;;;17.50;16.50;;;;;;;;5044379;28;45286;-74
2022/12/11 03:44:35;;;;;;;;;18.50;15.00;;;;;;;;5048218;28;45423;-73
2022/12/11 03:47:02;;;;;;;;;17.75;14.00;;;;;;;;5053086;28;45439;-73
2022/12/11 03:49:30;;;;;;;;;14.25;11.75;;;;;;;;5037262;28;45364;-73
2022/12/11 03:51:56;;;;;;;;;18.75;17.50;;;;;;;;5031431;28;45170;-73
2022/12/11 03:54:23;;;;;;;;;14.75;14.00;;;;;;;;5047421;28;45338;-73
2022/12/11 03:56:49;;;;;;;;;13.50;11.50;;;;;;;;5049316;28;45201;-74
2022/12/11 03:59:15;;;;;;;;;15.25;14.00;;;;;;;;5053015;28;45395;-73
2022/12/11 04:01:40;;;;;;;;;17.00;16.50;;;;;;;;5052499;28;45316;-73
2022/12/11 04:04:05;;;;;;;;;15.75;13.25;;;;;;;;5048804;28;45344;-73
2022/12/11 04:06:30;;;;;;;;;23.50;18.25;;;;;;;;5056191;28;45213;-73
2022/12/11 04:08:55;;;;;;;;;19.50;15.75;;;;;;;;5029914;28;45272;-73
2022/12/11 04:11:36;;;;;;;;;20.75;18.25;;;;;;;;5040385;28;45432;-73
2022/12/11 04:16:45;;;;;;;;;17.75;14.50;;;;;;;;5042608;28;45299;-73
2022/12/11 04:24:38;;;;;;;;;23.33;19.00;;;;;;;;5045137;28;45367;-73
2022/12/11 04:27:03;;;;;;;;;28.50;19.50;;;;;;;;5047268;28;45340;-73
2022/12/11 04:29:28;;;;;;;;;21.00;18.00;;;;;;;;5041860;28;45447;-73
2022/12/11 04:31:54;;;;;;;;;24.75;19.50;;;;;;;;5039787;28;45534;-73
2022/12/11 04:34:19;;;;;;;;;22.75;20.50;;;;;;;;5039770;28;45292;-73
2022/12/11 04:36:44;;;;;;;;;22.50;18.75;;;;;;;;5041648;28;45328;-73
2022/12/11 04:39:09;;;;;;;;;13.25;10.50;;;;;;;;5041516;28;45271;-73
2022/12/11 04:41:35;;;;;;;;;19.75;15.00;;;;;;;;5020306;28;45853;-73
2022/12/11 04:44:01;;;;;;;;;16.25;15.00;;;;;;;;5044098;28;45688;-73
2022/12/11 04:46:26;;;;;;;;;15.50;13.50;;;;;;;;5038536;28;45446;-73
2022/12/11 04:48:51;;;;;;;;;17.25;15.50;;;;;;;;5038298;28;45485;-74
2022/12/11 04:51:17;;;;;;;;;20.00;12.25;;;;;;;;5038560;28;45294;-73
2022/12/11 04:53:42;;;;;;;;;17.50;11.50;;;;;;;;5039630;28;46222;-73
2022/12/11 04:56:09;;;;;;;;;14.75;13.25;;;;;;;;5039808;28;45305;-73
2022/12/11 04:58:34;;;;;;;;;15.75;15.25;;;;;;;;5040546;28;45421;-73
2022/12/11 05:01:00;;;;;;;;;12.50;11.00;;;;;;;;5044350;28;45331;-73
2022/12/11 05:03:25;;;;;;;;;18.75;12.50;;;;;;;;5038915;28;45399;-74
2022/12/11 05:05:51;;;;;;;;;15.00;11.50;;;;;;;;5039142;28;45219;-73
2022/12/11 05:08:18;;;;;;;;;18.75;16.75;;;;;;;;5041603;28;45229;-73
2022/12/11 05:10:43;;;;;;;;;15.00;14.75;;;;;;;;5037352;28;45343;-73
2022/12/11 05:13:08;;;;;;;;;24.75;15.75;;;;;;;;5023205;28;47920;-73
2022/12/11 05:15:33;;;;;;;;;15.75;14.75;;;;;;;;5041994;28;45333;-73
2022/12/11 05:17:58;;;;;;;;;19.00;10.50;;;;;;;;5041063;28;45436;-73
2022/12/11 05:20:24;;;;;;;;;20.25;16.75;;;;;;;;5044280;28;45214;-73
2022/12/11 05:22:49;;;;;;;;;12.00;12.00;;;;;;;;5041352;28;45382;-73
2022/12/11 05:25:14;;;;;;;;;16.50;11.75;;;;;;;;5041613;28;45538;-73
2022/12/11 05:27:39;;;;;;;;;15.50;14.00;;;;;;;;5042266;28;45468;-73
2022/12/11 05:30:05;;;;;;;;;10.25;10.25;;;;;;;;5044278;28;45324;-73
2022/12/11 05:32:30;;;;;;;;;7.50;3.00;;;;;;;;5046214;28;45485;-74
2022/12/11 05:34:55;;;;;;;;;16.75;13.50;;;;;;;;5043356;28;45297;-74
2022/12/11 05:37:20;;;;;;;;;22.50;16.00;;;;;;;;5026734;28;45328;-74
2022/12/11 05:39:46;;;;;;;;;19.50;13.75;;;;;;;;5042972;28;45289;-74
2022/12/11 05:42:11;;;;;;;;;15.00;15.00;;;;;;;;5026635;28;47028;-74
2022/12/11 05:44:36;;;;;;;;;22.50;12.50;;;;;;;;5045059;28;45321;-74
2022/12/11 05:47:01;;;;;;;;;18.50;14.50;;;;;;;;5021273;28;45553;-74
2022/12/11 05:49:26;;;;;;;;;17.67;15.00;;;;;;;;5023687;28;45641;-74
2022/12/11 05:51:52;;;;;;;;;21.75;13.00;;;;;;;;5024029;28;45240;-74
2022/12/11 05:54:17;;;;;;;;;15.50;12.25;;;;;;;;5024301;28;44745;-74
2022/12/11 05:56:42;;;;;;;;;13.75;12.25;;;;;;;;5025888;28;45184;-74
2022/12/11 05:59:08;;;;;;;;;16.00;14.75;;;;;;;;5027974;28;45940;-73
2022/12/11 06:01:37;;;;;;;;;16.50;15.50;;;;;;;;5020796;28;46057;-73
2022/12/11 06:04:04;;;;;;;;;17.00;15.00;;;;;;;;5023288;28;45480;-74
2022/12/11 06:06:29;;;;;;;;;19.75;15.25;;;;;;;;5021318;28;45470;-74
2022/12/11 06:08:55;;;;;;;;;13.50;11.00;;;;;;;;5024616;28;45391;-73
2022/12/11 06:11:21;;;;;;;;;19.75;15.00;;;;;;;;5022037;28;45467;-73
2022/12/11 06:13:46;;;;;;;;;16.00;14.75;;;;;;;;5020481;28;45486;-74
2022/12/11 06:16:12;;;;;;;;;18.25;12.50;;;;;;;;5019465;28;45521;-74
2022/12/11 06:18:38;;;;;;;;;11.50;11.50;;;;;;;;5022210;28;45463;-73
2022/12/11 06:21:13;;;;;;;;;19.75;11.50;;;;;;;;5022227;28;45224;-73
2022/12/11 06:23:39;;;;;;;;;22.25;11.75;;;;;;;;5022917;28;45329;-73
2022/12/11 06:26:04;;;;;;;;;13.50;11.00;;;;;;;;5020894;28;45225;-73
2022/12/11 06:28:29;;;;;;;;;16.75;15.00;;;;;;;;5026820;28;45265;-73
2022/12/11 06:30:57;;;;;;;;;20.50;17.50;;;;;;;;5019991;28;46648;-73
2022/12/11 06:33:22;;;;;;;;;25.25;17.75;;;;;;;;5019954;28;45609;-73
2022/12/11 06:35:48;;;;;;;;;21.50;15.00;;;;;;;;5026069;28;46439;-73
2022/12/11 06:38:13;;;;;;;;;17.00;14.67;;;;;;;;5021919;28;45566;-73
2022/12/11 06:40:38;;;;;;;;;27.00;18.25;;;;;;;;5021182;28;45430;-73
2022/12/11 06:43:03;;;;;;;;;20.00;16.50;;;;;;;;5022307;28;45457;-73
2022/12/11 06:45:29;;;;;;;;;16.33;14.00;;;;;;;;5023962;28;45569;-73
2022/12/11 06:47:54;;;;;;;;;18.33;17.00;;;;;;;;5033165;28;45599;-73
2022/12/11 06:50:20;;;;;;;;;18.00;14.67;;;;;;;;5042480;28;46051;-73
2022/12/11 06:52:45;;;;;;;;;22.00;17.00;;;;;;;;5042473;28;45372;-73
2022/12/11 06:55:10;;;;;;;;;20.33;17.00;;;;;;;;5041634;28;45511;-73
2022/12/11 06:57:35;;;;;;;;;17.67;17.67;;;;;;;;5044292;28;45432;-73
2022/12/11 07:00:01;;;;;;;;;20.67;18.33;;;;;;;;5039347;28;45487;-73
2022/12/11 07:02:26;;;;;;;;;15.00;15.00;;;;;;;;5041629;28;45439;-73
2022/12/11 07:04:51;;;;;;;;;19.33;16.33;;;;;;;;5026739;28;45492;-73
2022/12/11 07:07:16;;;;;;;;;21.67;17.33;;;;;;;;5041736;28;45421;-73
2022/12/11 07:09:41;;;;;;;;;25.67;20.00;;;;;;;;5043025;28;45949;-73
2022/12/11 07:12:07;;;;;;;;;17.33;17.33;;;;;;;;5046230;28;46750;-73
2022/12/11 07:14:32;;;;;;;;;22.25;18.00;;;;;;;;5041039;28;45400;-73
2022/12/11 07:16:58;;;;;;;;;19.00;15.00;;;;;;;;5040259;28;45317;-73
2022/12/11 07:19:23;;;;;;;;;18.00;17.00;;;;;;;;5030846;28;46616;-73
2022/12/11 07:21:48;;;;;;;;;15.25;13.00;;;;;;;;5052317;28;45258;-74
2022/12/11 07:24:14;;;;;;;;;22.33;16.67;;;;;;;;5047108;28;45532;-73
2022/12/11 07:26:39;;;;;;;;;16.33;15.67;;;;;;;;5054229;28;45218;-73
2022/12/11 07:29:04;;;;;;;;;25.67;20.67;;;;;;;;5037337;28;46731;-73
2022/12/11 07:31:30;;;;;;;;;21.00;18.67;;;;;;;;5056527;28;45516;-73
2022/12/11 07:33:56;;;;;;;;;27.00;19.33;;;;;;;;5035153;28;45313;-73
2022/12/11 07:36:21;;;;;;;;;26.00;19.33;;;;;;;;5036894;28;45741;-73
2022/12/11 07:38:46;;;;;;;;;28.33;21.67;;;;;;;;5044506;28;45331;-73
2022/12/11 07:41:12;;;;;;;;;23.67;22.33;;;;;;;;5047800;28;45253;-73
2022/12/11 07:43:38;;;;;;;;;27.00;22.00;;;;;;;;5052452;28;45266;-73
2022/12/11 07:46:05;;;;;;;;;24.67;19.67;;;;;;;;5051241;28;45431;-73
2022/12/11 07:48:30;;;;;;;;;31.33;24.33;;;;;;;;5040859;28;45463;-72
2022/12/11 07:51:05;;;;;;;;;34.67;19.33;;;;;;;;5032932;28;45277;-73
2022/12/11 07:53:31;;;;;;;;;31.00;25.00;;;;;;;;5045096;28;45277;-73
2022/12/11 07:55:58;;;;;;;;;26.00;18.00;;;;;;;;5057317;28;45533;-73
2022/12/11 07:58:23;;;;;;;;;30.67;24.00;;;;;;;;5043567;28;45412;-73
2022/12/11 08:00:48;;;;;;;;;39.00;25.33;;;;;;;;5037420;28;45594;-74
2022/12/11 08:03:13;;;;;;;;;28.33;23.33;;;;;;;;5048103;28;45360;-74
2022/12/11 08:05:38;;;;;;;;;18.00;11.00;;;;;;;;5039570;28;45619;-74
2022/12/11 08:08:04;;;;;;;;;28.33;24.67;;;;;;;;5040946;28;45577;-73
2022/12/11 08:10:29;;;;;;;;;24.67;24.00;;;;;;;;5041936;28;45099;-73
2022/12/11 08:12:54;;;;;;;;;29.00;24.33;;;;;;;;5028520;28;45341;-73
2022/12/11 08:15:19;;;;;;;;;30.33;25.00;;;;;;;;5049591;28;45175;-74
2022/12/11 08:17:45;;;;;;;;;32.00;26.00;;;;;;;;5033408;28;47249;-74
2022/12/11 08:20:10;;;;;;;;;39.67;33.33;;;;;;;;5043184;28;45537;-74
2022/12/11 08:22:35;;;;;;;;;31.00;24.67;;;;;;;;5045952;28;45230;-74
2022/12/11 08:25:00;;;;;;;;;44.33;31.00;;;;;;;;5046593;28;45519;-74
2022/12/11 08:27:25;;;;;;;;;39.00;30.67;;;;;;;;5032419;28;45618;-74
2022/12/11 08:29:51;;;;;;;;;34.33;27.00;;;;;;;;5049951;28;45600;-74
2022/12/11 08:32:16;;;;;;;;;38.00;29.33;;;;;;;;5050116;28;45331;-75
2022/12/11 08:34:42;;;;;;;;;47.67;41.33;;;;;;;;5030303;28;46129;-75
2022/12/11 08:37:07;;;;;;;;;38.00;34.00;;;;;;;;5046545;28;46043;-74
2022/12/11 08:39:32;;;;;;;;;34.33;32.67;;;;;;;;5039343;28;45369;-74
2022/12/11 08:41:57;;;;;;;;;49.00;38.33;;;;;;;;5052351;28;45735;-74
2022/12/11 08:44:24;;;;;;;;;33.00;19.00;;;;;;;;5045689;28;45610;-74
2022/12/11 08:46:50;;;;;;;;;45.00;34.67;;;;;;;;5053385;28;45486;-72
2022/12/11 08:49:15;;;;;;;;;66.67;53.67;;;;;;;;5028663;28;45471;-72
2022/12/11 08:51:40;;;;;;;;;70.33;52.33;;;;;;;;5057324;28;45376;-72
2022/12/11 08:54:06;;;;;;;;;52.67;38.67;;;;;;;;5057165;28;45533;-72
2022/12/11 08:56:31;;;;;;;;;35.00;28.67;;;;;;;;5040434;28;45346;-73
2022/12/11 08:58:58;;;;;;;;;40.00;32.33;;;;;;;;5057693;28;45286;-72
2022/12/11 09:01:24;;;;;;;;;39.33;31.67;;;;;;;;5059365;28;45266;-75
2022/12/11 09:03:50;;;;;;;;;63.67;48.00;;;;;;;;5033039;28;45350;-73
2022/12/11 09:06:17;;;;;;;;;20.67;17.67;;;;;;;;5047974;28;45455;-72
2022/12/11 09:08:43;;;;;;;;;43.67;34.67;;;;;;;;5034592;28;45325;-74
2022/12/11 09:11:10;;;;;;;;;30.33;24.33;;;;;;;;5042700;28;45397;-74
2022/12/11 09:13:36;;;;;;;;;44.67;37.33;;;;;;;;5051931;28;45551;-74
2022/12/11 09:16:09;;;;;;;;;46.33;37.67;;;;;;;;5059931;28;46101;-74
2022/12/11 09:18:34;;;;;;;;;42.67;31.33;;;;;;;;5052845;28;45450;-73
2022/12/11 09:21:00;;;;;;;;;36.67;35.00;;;;;;;;5060142;28;45400;-72
2022/12/11 09:23:25;;;;;;;;;43.00;39.00;;;;;;;;5053838;28;45487;-73
2022/12/11 09:25:50;;;;;;;;;36.67;33.33;;;;;;;;5058468;28;45472;-72
2022/12/11 09:28:16;;;;;;;;;48.67;34.67;;;;;;;;5054407;28;45454;-73
2022/12/11 09:30:41;;;;;;;;;47.00;28.67;;;;;;;;5058087;28;45284;-73
2022/12/11 09:33:06;;;;;;;;;47.00;35.00;;;;;;;;5041105;28;46950;-72
2022/12/11 09:35:31;;;;;;;;;44.67;37.00;;;;;;;;5058616;28;45386;-71
2022/12/11 09:37:56;;;;;;;;;34.33;26.00;;;;;;;;5054300;28;45377;-72
2022/12/11 09:40:22;;;;;;;;;33.00;30.33;;;;;;;;5057416;28;45406;-72
2022/12/11 09:42:57;;;;;;;;;50.33;41.00;;;;;;;;5050706;28;45316;-72
2022/12/11 09:45:23;;;;;;;;;40.33;30.00;;;;;;;;5057470;28;45738;-73
2022/12/11 09:47:54;;;;;;;;;38.33;29.33;;;;;;;;5050210;28;45203;-74
2022/12/11 09:50:27;;;;;;;;;46.33;33.67;;;;;;;;5028178;28;45432;-73
2022/12/11 09:52:58;;;;;;;;;44.00;35.00;;;;;;;;5047938;28;45304;-73
2022/12/11 09:55:24;;;;;;;;;45.67;39.00;;;;;;;;5041967;28;46092;-73
2022/12/11 09:57:56;;;;;;;;;43.33;37.67;;;;;;;;5035364;28;45463;-74
2022/12/11 10:00:25;;;;;;;;;36.33;31.33;;;;;;;;5046316;28;45311;-74
2022/12/11 10:02:53;;;;;;;;;46.33;39.33;;;;;;;;5043704;28;45301;-73
2022/12/11 10:05:36;;;;;;;;;43.00;34.67;;;;;;;;5043358;28;45367;-74
2022/12/11 10:08:09;;;;;;;;;45.00;39.00;;;;;;;;5043584;28;45410;-74
2022/12/11 10:10:35;;;;;;;;;39.33;30.67;;;;;;;;5047552;28;45196;-74
2022/12/11 10:13:07;;;;;;;;;32.33;29.00;;;;;;;;5047491;28;45494;-74
2022/12/11 10:15:42;;;;;;;;;34.33;31.67;;;;;;;;5048984;28;45495;-74
2022/12/11 10:18:16;;;;;;;;;37.67;35.00;;;;;;;;5047044;28;45385;-73
2022/12/11 10:20:43;;;;;;;;;41.67;33.67;;;;;;;;5055888;28;44979;-74
2022/12/11 10:23:15;;;;;;;;;38.33;31.33;;;;;;;;5039615;28;46171;-74
2022/12/11 10:25:46;;;;;;;;;36.67;31.00;;;;;;;;5049734;28;46448;-75
2022/12/11 10:28:16;;;;;;;;;34.67;30.00;;;;;;;;5049352;28;45379;-74
2022/12/11 10:30:53;;;;;;;;;34.67;28.33;;;;;;;;5044138;28;45291;-74
2022/12/11 10:33:19;;;;;;;;;39.33;33.00;;;;;;;;5049647;28;45266;-74
2022/12/11 10:35:47;;;;;;;;;43.67;31.00;;;;;;;;5057241;28;45736;-74
2022/12/11 10:38:21;;;;;;;;;32.33;29.67;;;;;;;;5033885;28;45161;-74
2022/12/11 10:40:48;;;;;;;;;41.33;37.00;;;;;;;;5035114;28;45305;-74
2022/12/11 10:43:14;;;;;;;;;38.00;30.00;;;;;;;;5041957;28;45455;-74
2022/12/11 10:45:39;;;;;;;;;36.67;30.67;;;;;;;;5051617;28;45384;-74
2022/12/11 10:48:11;;;;;;;;;30.33;22.67;;;;;;;;5048784;28;45502;-74
2022/12/11 10:50:36;;;;;;;;;47.25;27.25;;;;;;;;5037620;28;45546;-74
2022/12/11 10:53:02;;;;;;;;;32.00;28.50;;;;;;;;5045623;28;44797;-74
2022/12/11 10:55:29;;;;;;;;;30.00;23.50;;;;;;;;5041700;28;45192;-75
2022/12/11 10:58:02;;;;;;;;;40.75;32.75;;;;;;;;5028312;28;45480;-76
2022/12/11 11:00:31;;;;;;;;;42.25;31.50;;;;;;;;5046079;28;45424;-74
2022/12/11 11:02:56;;;;;;;;;40.75;28.50;;;;;;;;5041248;28;45364;-75
2022/12/11 11:05:28;;;;;;;;;38.00;28.75;;;;;;;;5043609;28;46240;-74
2022/12/11 11:08:02;;;;;;;;;45.33;34.00;;;;;;;;5039444;28;45434;-74
2022/12/11 11:10:27;;;;;;;;;36.67;31.67;;;;;;;;5046958;28;45305;-74
2022/12/11 11:12:59;;;;;;;;;33.50;27.00;;;;;;;;5041712;28;45397;-74
2022/12/11 11:15:26;;;;;;;;;42.00;29.25;;;;;;;;5047729;28;45476;-74
2022/12/11 11:17:52;;;;;;;;;41.75;32.00;;;;;;;;5043227;28;45412;-74
2022/12/11 11:20:19;;;;;;;;;30.00;28.00;;;;;;;;5037108;28;45287;-74
2022/12/11 11:22:46;;;;;;;;;25.75;25.50;;;;;;;;5037906;28;45488;-74
2022/12/11 11:25:22;;;;;;;;;31.25;28.75;;;;;;;;5040141;28;47042;-74
2022/12/11 11:27:50;;;;;;;;;34.25;31.25;;;;;;;;5047179;28;44818;-73
2022/12/11 11:30:18;;;;;;;;;38.50;34.50;;;;;;;;5039726;28;45278;-73
2022/12/11 11:32:44;;;;;;;;;41.25;29.75;;;;;;;;5032580;28;46571;-73
2022/12/11 11:35:10;;;;;;;;;37.25;29.75;;;;;;;;5049394;28;46004;-73
2022/12/11 11:37:35;;;;;;;;;33.50;30.75;;;;;;;;5043839;28;45312;-73
2022/12/11 11:40:21;;;;;;;;;33.50;29.75;;;;;;;;5035039;28;45304;-74
2022/12/11 11:42:51;;;;;;;;;33.00;27.50;;;;;;;;5043641;28;45798;-73
2022/12/11 11:45:21;;;;;;;;;30.50;26.50;;;;;;;;5043206;28;46516;-73
2022/12/11 11:47:57;;;;;;;;;34.75;26.75;;;;;;;;5047809;28;45534;-73
2022/12/11 11:50:31;;;;;;;;;43.25;29.75;;;;;;;;5045602;28;45364;-73
2022/12/11 11:53:01;;;;;;;;;34.00;29.75;;;;;;;;5049958;28;45582;-74
2022/12/11 11:55:35;;;;;;;;;35.00;28.25;;;;;;;;5053063;28;46198;-74
2022/12/11 11:58:21;;;;;;;;;40.25;29.25;;;;;;;;5033032;28;45288;-74
2022/12/11 12:00:46;;;;;;;;;34.00;27.75;;;;;;;;5055266;28;44738;-74
2022/12/11 12:03:14;;;;;;;;;37.75;34.75;;;;;;;;5043173;28;45337;-74
2022/12/11 12:05:45;;;;;;;;;33.00;27.75;;;;;;;;5026264;28;45363;-74
2022/12/11 12:08:20;;;;;;;;;38.25;28.00;;;;;;;;5043814;28;45163;-75
2022/12/11 12:11:10;;;;;;;;;46.67;42.00;;;;;;;;5057138;28;45202;-74
2022/12/11 12:13:42;;;;;;;;;37.25;29.75;;;;;;;;5037762;28;45516;-74
2022/12/11 12:16:17;;;;;;;;;41.25;36.00;;;;;;;;5049677;28;45512;-75
2022/12/11 12:18:45;;;;;;;;;33.25;30.25;;;;;;;;5047397;28;45182;-75
2022/12/11 12:21:26;;;;;;;;;34.75;24.00;;;;;;;;5046005;28;45476;-75
2022/12/11 12:23:51;;;;;;;;;41.00;34.50;;;;;;;;5045933;28;45397;-75
2022/12/11 12:26:24;;;;;;;;;40.75;35.75;;;;;;;;5056883;28;45276;-75
2022/12/11 12:28:51;;;;;;;;;34.25;30.75;;;;;;;;5034533;28;45444;-75
2022/12/11 12:31:22;;;;;;;;;36.75;33.50;;;;;;;;5056157;28;44717;-75
2022/12/11 12:33:48;;;;;;;;;41.25;33.50;;;;;;;;5055512;28;45372;-75
2022/12/11 12:36:19;;;;;;;;;34.25;32.75;;;;;;;;5061056;28;46021;-75
2022/12/11 12:38:48;;;;;;;;;32.00;29.25;;;;;;;;5048967;28;45485;-75
2022/12/11 12:41:19;;;;;;;;;32.75;31.75;;;;;;;;5041356;28;45381;-75
2022/12/11 12:43:44;;;;;;;;;36.50;29.00;;;;;;;;5030482;28;45365;-75
2022/12/11 12:46:25;;;;;;;;;47.00;35.33;;;;;;;;5054004;28;45292;-75
2022/12/11 12:48:51;;;;;;;;;50.00;39.75;;;;;;;;5052457;28;45377;-75
2022/12/11 12:51:17;;;;;;;;;55.00;46.67;;;;;;;;5046779;28;45201;-74
2022/12/11 12:53:52;;;;;;;;;34.50;29.00;;;;;;;;5046654;28;45747;-74
2022/12/11 12:56:17;;;;;;;;;38.75;31.75;;;;;;;;5051776;28;46192;-75
2022/12/11 12:58:44;;;;;;;;;49.50;38.50;;;;;;;;5033119;28;45496;-74
2022/12/11 13:01:12;;;;;;;;;42.75;36.75;;;;;;;;5053855;28;45353;-74
2022/12/11 13:03:58;;;;;;;;;44.67;37.67;;;;;;;;5030702;28;45642;-75
2022/12/11 13:06:44;;;;;;;;;59.00;42.33;;;;;;;;5032667;28;46556;-74
2022/12/11 13:09:09;;;;;;;;;34.75;30.25;;;;;;;;5042844;28;45254;-74
2022/12/11 13:11:35;;;;;;;;;34.25;28.00;;;;;;;;5036023;28;45308;-74
2022/12/11 13:14:02;;;;;;;;;39.25;32.00;;;;;;;;5045425;28;45408;-74
2022/12/11 13:16:35;;;;;;;;;39.50;29.00;;;;;;;;5054470;28;46503;-74
2022/12/11 13:19:00;;;;;;;;;57.00;40.67;;;;;;;;5049446;28;45613;-75
2022/12/11 13:21:28;;;;;;;;;61.67;43.00;;;;;;;;5045280;28;45265;-74
2022/12/11 13:23:54;;;;;;;;;45.00;39.67;;;;;;;;5030417;28;45870;-74
2022/12/11 13:26:30;;;;;;;;;97.00;72.67;;;;;;;;5048352;28;45395;-74
2022/12/11 13:28:57;;;;;;;;;65.67;48.33;;;;;;;;5033278;28;45491;-74
2022/12/11 13:31:26;;;;;;;;;60.00;43.67;;;;;;;;5050887;28;45348;-74
2022/12/11 13:33:54;;;;;;;;;60.33;44.33;;;;;;;;5036989;28;46045;-74
2022/12/11 13:36:24;;;;;;;;;59.33;44.00;;;;;;;;5036892;28;47118;-74
2022/12/11 13:38:50;;;;;;;;;45.75;39.25;;;;;;;;5034589;28;45397;-74
2022/12/11 13:41:17;;;;;;;;;68.00;47.67;;;;;;;;5058282;28;45521;-73
2022/12/11 13:43:45;;;;;;;;;107.50;84.75;;;;;;;;5035892;28;45944;-73
2022/12/11 13:46:13;;;;;;;;;71.33;53.67;;;;;;;;5058007;28;45298;-73
2022/12/11 13:48:44;;;;;;;;;55.00;42.33;;;;;;;;5046048;28;45324;-75
2022/12/11 13:51:17;;;;;;;;;51.67;41.00;;;;;;;;5036756;28;45518;-73
2022/12/11 13:53:42;;;;;;;;;62.33;46.00;;;;;;;;5037827;28;45607;-74
2022/12/11 13:56:15;;;;;;;;;35.67;33.00;;;;;;;;5040126;28;46892;-74
2022/12/11 13:58:40;;;;;;;;;48.00;36.25;;;;;;;;5028576;28;45764;-73
2022/12/11 14:01:11;;;;;;;;;49.33;37.33;;;;;;;;5048791;28;45171;-73
2022/12/11 14:03:40;;;;;;;;;47.25;38.00;;;;;;;;5044185;28;45528;-74
2022/12/11 14:06:09;;;;;;;;;46.25;39.50;;;;;;;;5024497;28;46878;-74
2022/12/11 14:08:36;;;;;;;;;33.75;30.75;;;;;;;;5043206;28;45536;-74
2022/12/11 14:11:01;;;;;;;;;63.67;50.33;;;;;;;;5044453;28;45324;-74
2022/12/11 14:13:34;;;;;;;;;54.33;42.67;;;;;;;;5032968;28;47028;-74
2022/12/11 14:16:00;;;;;;;;;40.67;39.00;;;;;;;;5027817;28;46222;-74
2022/12/11 14:18:27;;;;;;;;;51.00;43.67;;;;;;;;5047335;28;45413;-74
2022/12/11 14:20:57;;;;;;;;;70.33;54.33;;;;;;;;5054305;28;45389;-74
2022/12/11 14:23:24;;;;;;;;;60.33;47.67;;;;;;;;5048797;28;45618;-74
2022/12/11 14:25:55;;;;;;;;;58.00;41.67;;;;;;;;5054789;28;46027;-74
2022/12/11 14:28:26;;;;;;;;;63.67;48.00;;;;;;;;5040197;28;45234;-73
2022/12/11 14:30:51;;;;;;;;;63.33;47.67;;;;;;;;5038470;28;45544;-74